Mount Pleasant, Arkansas
Current Conditions -  °F | °C
As of 12:55 PM on Friday 24 Oct 2014 (Local Time) from KBVX Reporting Station
Broken Clouds Broken Clouds  
Wind Chill: 70°   Ceiling: 4100
Heat Index: 70°   Visibility: 10mi
Dew Point: 54°   Wind: 0mph
Humidity: 56%   Direction: NA
Pressure: 30.13"   Gusts: NA
Location:  35.96°N, 91.76°W
Report Text: KBVX 241755Z AUTO 00000KT 10SM BKN041 21/12 A3013 RMK AO1 10210 20060 57010
Loading
Personal Weather Stations






























Interactive Weather Map
Tropical Storm Tracking
New forecast layout! Learn more

10-Day Weather Forecast

Advertisements
Track Severe Weather on mobile